Time;durP1;ratioP1;P1;durP2;ratioP2;P2;SDS_P1;SDS_P2;PMS_P1;PMS_P2;Temp;Humidity;BMP_temperature;BMP_pressure;BME280_temperature;BME280_humidity;BME280_pressure;Samples;Min_cycle;Max_cycle;Signal;HPM_P1;HPM_P2
2021/10/19 00:00:36;;;;;;;;;;;;;;;15.58;50.55;101866.88;5005303;28;99958;-81
2021/10/19 00:03:05;;;;;;;;;;;;;;;15.86;49.82;101870.19;5013210;28;100772;-81
2021/10/19 00:05:34;;;;;;;;;;;;;;;15.98;49.36;101871.50;5011484;28;96543;-81
2021/10/19 00:08:00;;;;;;;;;;;;;;;15.84;49.66;101880.03;5008525;28;96473;-81
2021/10/19 00:10:27;;;;;;;;;;;;;;;15.92;49.44;101880.63;5013786;28;99396;-81
2021/10/19 00:12:54;;;;;;;;;;;;;;;15.91;49.36;101876.22;5015084;28;97706;-81
2021/10/19 00:15:20;;;;;;;;;;;;;;;15.90;49.44;101883.34;5017425;28;96214;-81
2021/10/19 00:17:48;;;;;;;;;;;;;;;15.88;49.51;101882.53;5014569;28;96507;-80
2021/10/19 00:20:19;;;;;;;;;;;;;;;15.89;49.75;101880.72;5019605;28;100074;-81
2021/10/19 00:22:47;;;;;;;;;;;;;;;16.10;49.27;101885.19;5019815;28;97855;-81
2021/10/19 00:25:17;;;;;;;;;;;;;;;16.17;48.99;101878.69;5012475;28;97129;-82
2021/10/19 00:27:44;;;;;;;;;;;;;;;15.82;49.80;101868.56;5019117;28;96602;-81
2021/10/19 00:30:11;;;;;;;;;;;;;;;15.62;50.20;101877.34;5019104;28;96764;-80
2021/10/19 00:32:38;;;;;;;;;;;;;;;15.62;50.35;101874.69;5019838;28;99339;-81
2021/10/19 00:35:05;;;;;;;;;;;;;;;15.78;49.92;101867.84;5016748;28;97289;-80
2021/10/19 00:37:33;;;;;;;;;;;;;;;15.72;50.28;101862.75;5008452;28;96652;-81
2021/10/19 00:39:59;;;;;;;;;;;;;;;15.81;50.07;101866.84;5014897;28;99770;-80
2021/10/19 00:42:26;;;;;;;;;;;;;;;15.72;50.27;101862.75;5015784;28;97597;-80
2021/10/19 00:44:52;;;;;;;;;;;;;;;15.77;50.32;101858.09;5011355;28;96840;-81
2021/10/19 00:47:21;;;;;;;;;;;;;;;15.49;51.00;101852.09;4998987;28;97042;-81
2021/10/19 00:49:48;;;;;;;;;;;;;;;15.44;51.06;101843.38;5010589;28;99652;-81
2021/10/19 00:52:16;;;;;;;;;;;;;;;15.30;51.48;101840.38;5002284;28;100012;-80
2021/10/19 00:54:44;;;;;;;;;;;;;;;15.56;50.96;101848.28;5011517;28;96697;-81
2021/10/19 00:57:15;;;;;;;;;;;;;;;15.64;50.88;101842.66;4999729;28;96883;-81
2021/10/19 00:59:43;;;;;;;;;;;;;;;15.36;51.53;101846.34;5010464;28;98551;-81
2021/10/19 01:02:10;;;;;;;;;;;;;;;15.38;51.71;101836.50;5000215;28;99273;-81
2021/10/19 01:04:37;;;;;;;;;;;;;;;15.28;51.75;101834.25;5005320;28;96745;-81
2021/10/19 01:07:06;;;;;;;;;;;;;;;15.30;51.87;101827.06;5010079;28;96780;-79
2021/10/19 01:09:32;;;;;;;;;;;;;;;15.31;51.89;101829.66;5014027;28;96670;-80
2021/10/19 01:12:00;;;;;;;;;;;;;;;15.27;52.00;101824.53;5017427;28;97869;-81
2021/10/19 01:14:27;;;;;;;;;;;;;;;15.15;52.49;101825.88;5015784;28;96631;-80
2021/10/19 01:16:53;;;;;;;;;;;;;;;15.24;52.57;101825.50;5021181;28;96672;-82
2021/10/19 01:19:21;;;;;;;;;;;;;;;15.08;52.79;101827.88;5020757;28;98100;-82
2021/10/19 01:21:50;;;;;;;;;;;;;;;14.90;53.29;101836.53;5018946;28;97007;-80
2021/10/19 01:24:17;;;;;;;;;;;;;;;15.15;52.62;101828.53;5020263;28;96110;-80
2021/10/19 01:26:43;;;;;;;;;;;;;;;15.22;52.46;101822.06;5021293;28;97696;-80
2021/10/19 01:29:10;;;;;;;;;;;;;;;15.08;52.83;101811.03;5014008;28;98586;-78
2021/10/19 01:31:36;;;;;;;;;;;;;;;15.04;53.10;101810.28;5019985;28;98880;-80
2021/10/19 01:34:03;;;;;;;;;;;;;;;15.16;52.81;101801.81;5021764;28;95852;-81
2021/10/19 01:36:29;;;;;;;;;;;;;;;14.95;53.29;101800.00;5018791;28;96855;-79
2021/10/19 01:38:57;;;;;;;;;;;;;;;15.12;53.00;101796.69;5021535;28;96584;-79
2021/10/19 01:41:24;;;;;;;;;;;;;;;15.01;53.47;101804.22;5020389;28;98015;-81
2021/10/19 01:43:50;;;;;;;;;;;;;;;15.04;53.38;101804.94;5017007;28;96439;-80
2021/10/19 01:46:17;;;;;;;;;;;;;;;15.08;53.28;101803.94;5017253;28;96155;-80
2021/10/19 01:48:44;;;;;;;;;;;;;;;15.14;52.60;101808.16;5018554;28;97756;-80
2021/10/19 01:51:10;;;;;;;;;;;;;;;15.10;53.05;101801.19;5013128;28;96774;-81
2021/10/19 01:53:37;;;;;;;;;;;;;;;15.28;52.66;101789.88;5010712;28;96661;-80
2021/10/19 01:56:04;;;;;;;;;;;;;;;15.35;52.66;101791.38;5013797;28;96531;-81
2021/10/19 01:58:33;;;;;;;;;;;;;;;15.11;53.15;101794.94;5014699;28;99874;-81
2021/10/19 02:01:00;;;;;;;;;;;;;;;14.98;53.56;101796.31;5002783;28;100118;-80
2021/10/19 02:03:29;;;;;;;;;;;;;;;15.19;52.78;101792.88;5003936;28;96701;-81
2021/10/19 02:05:58;;;;;;;;;;;;;;;15.38;52.53;101811.66;4997482;28;96853;-82
2021/10/19 02:08:30;;;;;;;;;;;;;;;15.28;52.70;101812.97;5000030;28;98117;-81
2021/10/19 02:10:56;;;;;;;;;;;;;;;15.31;52.51;101797.72;4999945;28;98091;-80
2021/10/19 02:13:24;;;;;;;;;;;;;;;15.05;53.39;101800.50;4998790;28;96888;-80
2021/10/19 02:15:51;;;;;;;;;;;;;;;15.23;52.89;101815.78;5003078;28;96826;-81
2021/10/19 02:18:18;;;;;;;;;;;;;;;15.16;53.26;101814.28;5007691;28;98952;-81
2021/10/19 02:20:44;;;;;;;;;;;;;;;15.44;52.47;101811.41;5006802;28;96794;-80
2021/10/19 02:23:11;;;;;;;;;;;;;;;15.48;52.27;101815.72;5002408;28;96828;-81
2021/10/19 02:25:37;;;;;;;;;;;;;;;15.54;51.99;101811.06;4998651;28;96801;-81
2021/10/19 02:28:06;;;;;;;;;;;;;;;15.25;52.70;101802.41;4991606;28;98856;-80
2021/10/19 02:30:34;;;;;;;;;;;;;;;15.38;52.47;101785.03;4998004;28;100964;-81
2021/10/19 02:33:01;;;;;;;;;;;;;;;15.37;52.43;101785.97;4997867;28;96791;-81
2021/10/19 02:35:28;;;;;;;;;;;;;;;15.32;52.65;101787.94;4996858;28;96844;-81
2021/10/19 02:37:57;;;;;;;;;;;;;;;15.40;52.52;101792.03;4994937;28;98189;-81
2021/10/19 02:40:24;;;;;;;;;;;;;;;15.29;52.74;101790.72;4997160;28;97782;-81
2021/10/19 02:42:50;;;;;;;;;;;;;;;15.40;52.49;101778.72;4997869;28;97382;-81
2021/10/19 02:45:17;;;;;;;;;;;;;;;15.13;53.01;101780.66;5001183;28;96784;-81
2021/10/19 02:47:45;;;;;;;;;;;;;;;15.16;53.17;101782.34;4999442;28;100840;-81
2021/10/19 02:50:12;;;;;;;;;;;;;;;15.12;53.39;101783.38;4998388;28;100752;-82
2021/10/19 02:52:39;;;;;;;;;;;;;;;15.29;52.83;101772.97;4996966;28;97539;-81
2021/10/19 02:55:06;;;;;;;;;;;;;;;15.25;53.09;101771.31;4997880;28;97065;-82
2021/10/19 02:57:33;;;;;;;;;;;;;;;14.97;53.64;101783.94;4998928;28;99069;-81
2021/10/19 02:59:59;;;;;;;;;;;;;;;15.19;53.09;101792.88;4999220;28;97467;-81
2021/10/19 03:02:26;;;;;;;;;;;;;;;15.18;53.31;101792.91;4997371;28;98602;-81
2021/10/19 03:04:55;;;;;;;;;;;;;;;15.06;53.48;101786.28;5002294;28;96913;-81
2021/10/19 03:07:21;;;;;;;;;;;;;;;15.33;52.99;101782.56;5032693;28;97480;-80
2021/10/19 03:09:48;;;;;;;;;;;;;;;15.37;52.66;101773.50;5000659;28;99461;-81
2021/10/19 03:12:14;;;;;;;;;;;;;;;15.14;53.50;101766.44;4999164;28;96823;-81
2021/10/19 03:14:40;;;;;;;;;;;;;;;15.13;53.48;101755.81;4999203;28;96811;-81
2021/10/19 03:17:07;;;;;;;;;;;;;;;14.99;53.81;101758.16;4998702;28;98828;-80
2021/10/19 03:19:33;;;;;;;;;;;;;;;15.02;53.82;101753.59;4997458;28;98086;-81
2021/10/19 03:22:01;;;;;;;;;;;;;;;15.11;53.60;101752.34;4994877;28;97532;-81
2021/10/19 03:24:27;;;;;;;;;;;;;;;14.84;54.52;101753.38;4986377;28;98980;-81
2021/10/19 03:26:54;;;;;;;;;;;;;;;14.98;53.76;101751.94;4989167;28;98296;-81
2021/10/19 03:29:21;;;;;;;;;;;;;;;15.15;53.61;101754.84;4995521;28;100787;-81
2021/10/19 03:31:48;;;;;;;;;;;;;;;15.01;53.87;101750.97;4995943;28;97087;-81
2021/10/19 03:34:15;;;;;;;;;;;;;;;14.79;54.49;101750.03;4997739;28;98334;-81
2021/10/19 03:36:41;;;;;;;;;;;;;;;14.98;54.00;101761.72;4996387;28;98895;-82
2021/10/19 03:39:09;;;;;;;;;;;;;;;15.19;53.55;101766.25;4997096;28;102141;-83
2021/10/19 03:41:35;;;;;;;;;;;;;;;15.30;53.22;101779.13;4996350;28;96870;-81
2021/10/19 03:44:02;;;;;;;;;;;;;;;15.26;53.15;101773.06;4998028;28;96857;-81
2021/10/19 03:46:28;;;;;;;;;;;;;;;15.21;53.22;101759.06;4987058;28;99212;-81
2021/10/19 03:48:55;;;;;;;;;;;;;;;15.01;54.08;101764.28;4998218;28;96907;-80
2021/10/19 03:51:21;;;;;;;;;;;;;;;15.06;53.94;101760.53;5002239;28;96768;-80
2021/10/19 03:53:48;;;;;;;;;;;;;;;14.86;54.32;101760.41;5011328;28;98476;-80
2021/10/19 03:56:16;;;;;;;;;;;;;;;14.91;54.31;101755.75;5013944;28;98224;-80
2021/10/19 03:58:42;;;;;;;;;;;;;;;14.97;54.12;101747.53;5013690;28;98094;-80
2021/10/19 04:01:08;;;;;;;;;;;;;;;15.11;53.58;101745.22;5017246;28;95899;-81
2021/10/19 04:03:35;;;;;;;;;;;;;;;15.07;53.74;101754.28;5009279;28;97114;-80
2021/10/19 04:06:02;;;;;;;;;;;;;;;15.08;53.61;101752.47;5003490;28;97729;-80
2021/10/19 04:08:28;;;;;;;;;;;;;;;15.08;53.87;101757.81;5003604;28;99128;-80
2021/10/19 04:10:54;;;;;;;;;;;;;;;14.98;54.02;101770.59;5004881;28;97146;-81
2021/10/19 04:13:22;;;;;;;;;;;;;;;14.95;54.24;101762.72;5000974;28;97092;-81
2021/10/19 04:15:49;;;;;;;;;;;;;;;14.99;54.12;101759.00;4999890;28;98251;-80
2021/10/19 04:18:15;;;;;;;;;;;;;;;14.92;54.32;101759.28;4999186;28;96967;-81
2021/10/19 04:20:43;;;;;;;;;;;;;;;15.14;53.71;101754.91;5001642;28;96605;-81
2021/10/19 04:23:10;;;;;;;;;;;;;;;15.05;53.91;101764.09;5000073;28;97825;-81
2021/10/19 04:25:36;;;;;;;;;;;;;;;14.93;54.39;101759.25;4999405;28;97796;-81
2021/10/19 04:28:02;;;;;;;;;;;;;;;14.95;54.52;101767.19;4993269;28;98793;-80
2021/10/19 04:30:32;;;;;;;;;;;;;;;14.97;54.41;101768.84;4994510;28;97371;-81
2021/10/19 04:32:59;;;;;;;;;;;;;;;14.95;54.31;101761.84;4990346;28;97647;-81
2021/10/19 04:35:26;;;;;;;;;;;;;;;14.65;55.30;101758.53;4993466;28;97840;-81
2021/10/19 04:37:53;;;;;;;;;;;;;;;14.74;55.16;101759.06;4995180;28;97595;-81
2021/10/19 04:40:20;;;;;;;;;;;;;;;14.82;54.83;101739.28;5010607;28;96744;-82
2021/10/19 04:42:47;;;;;;;;;;;;;;;14.68;55.10;101731.81;5016057;28;96762;-82
2021/10/19 04:45:13;;;;;;;;;;;;;;;14.60;55.55;101734.75;5014617;28;100631;-80
2021/10/19 04:47:41;;;;;;;;;;;;;;;14.64;55.38;101725.72;5006887;28;97874;-81
2021/10/19 04:50:07;;;;;;;;;;;;;;;14.76;55.03;101713.78;4994233;28;96687;-80
2021/10/19 04:52:34;;;;;;;;;;;;;;;14.73;55.19;101709.44;5000838;28;96767;-82
2021/10/19 04:55:01;;;;;;;;;;;;;;;14.73;55.21;101714.75;4998977;28;99232;-82
2021/10/19 04:57:27;;;;;;;;;;;;;;;14.59;55.74;101706.41;5000060;28;101197;-81
2021/10/19 04:59:54;;;;;;;;;;;;;;;14.58;55.56;101699.34;5000118;28;96744;-81
2021/10/19 05:02:20;;;;;;;;;;;;;;;14.46;55.82;101699.81;5001458;28;96905;-84
2021/10/19 05:04:49;;;;;;;;;;;;;;;14.71;55.24;101716.59;5002472;28;99991;-84
2021/10/19 05:07:15;;;;;;;;;;;;;;;14.56;55.69;101703.00;5004181;28;99841;-84
2021/10/19 05:09:43;;;;;;;;;;;;;;;14.82;55.02;101710.03;5005063;28;96616;-84
2021/10/19 05:12:11;;;;;;;;;;;;;;;15.01;54.38;101713.72;5003084;28;97441;-84
2021/10/19 05:14:38;;;;;;;;;;;;;;;14.66;55.38;101715.91;5006357;28;101572;-82
2021/10/19 05:17:05;;;;;;;;;;;;;;;14.44;55.89;101706.13;5003158;28;96838;-82
2021/10/19 05:19:32;;;;;;;;;;;;;;;14.36;56.22;101698.41;4997889;28;97412;-81
2021/10/19 05:22:00;;;;;;;;;;;;;;;14.46;56.21;101696.28;5001967;28;96820;-80
2021/10/19 05:24:27;;;;;;;;;;;;;;;14.44;56.15;101690.19;5000442;28;98977;-82
2021/10/19 05:26:53;;;;;;;;;;;;;;;14.41;56.37;101696.47;5002940;28;101339;-81
2021/10/19 05:29:20;;;;;;;;;;;;;;;14.49;55.93;101698.84;5006252;28;96711;-82
2021/10/19 05:31:46;;;;;;;;;;;;;;;14.53;55.75;101698.66;5002370;28;96839;-80
2021/10/19 05:34:13;;;;;;;;;;;;;;;14.43;56.02;101707.91;4991102;28;100395;-80
2021/10/19 05:36:39;;;;;;;;;;;;;;;14.53;55.82;101700.47;5002399;28;98756;-85
2021/10/19 05:39:08;;;;;;;;;;;;;;;14.46;56.09;101689.19;4999767;28;96815;-84
2021/10/19 05:41:35;;;;;;;;;;;;;;;14.38;56.42;101696.56;4992013;28;97181;-82
2021/10/19 05:44:03;;;;;;;;;;;;;;;14.02;56.90;101714.66;4995012;28;99094;-83
2021/10/19 05:46:29;;;;;;;;;;;;;;;14.60;55.72;101713.47;4987453;28;99533;-83
2021/10/19 05:48:56;;;;;;;;;;;;;;;14.71;55.30;101724.56;5005099;28;96584;-82
2021/10/19 05:51:23;;;;;;;;;;;;;;;14.77;54.89;101723.47;4997493;28;96822;-85
2021/10/19 05:56:37;;;;;;;;;;;;;;;15.02;54.19;101716.31;4998403;28;98950;-82
2021/10/19 05:59:03;;;;;;;;;;;;;;;14.98;54.27;101720.00;5005376;28;96969;-83
2021/10/19 06:01:39;;;;;;;;;;;;;;;15.05;53.90;101721.50;5002243;28;96830;-84
2021/10/19 06:04:07;;;;;;;;;;;;;;;15.10;54.02;101718.66;5001761;28;100257;-86
2021/10/19 06:06:33;;;;;;;;;;;;;;;15.00;53.99;101717.31;5005185;28;100226;-85
2021/10/19 06:09:03;;;;;;;;;;;;;;;15.09;54.05;101709.84;5026363;22;96824;-85
2021/10/19 06:11:47;;;;;;;;;;;;;;;15.15;53.78;101708.72;5021385;28;97205;-85
2021/10/19 06:14:18;;;;;;;;;;;;;;;14.86;54.77;101703.66;5022193;28;99231;-87
2021/10/19 06:16:54;;;;;;;;;;;;;;;15.05;54.29;101710.00;5019145;28;97760;-83
2021/10/19 06:19:23;;;;;;;;;;;;;;;15.08;53.92;101702.78;5024036;28;97864;-86
2021/10/19 06:21:50;;;;;;;;;;;;;;;15.17;53.91;101696.19;5018507;27;98509;-84
2021/10/19 06:24:17;;;;;;;;;;;;;;;15.25;53.53;101702.09;5021180;28;99083;-88
2021/10/19 06:26:48;;;;;;;;;;;;;;;15.22;53.79;101702.25;5020788;28;98591;-85
2021/10/19 06:29:16;;;;;;;;;;;;;;;14.91;54.15;101702.53;5022408;28;97431;-85
2021/10/19 06:31:43;;;;;;;;;;;;;;;15.20;53.74;101704.09;5014296;28;97812;-86
2021/10/19 06:34:10;;;;;;;;;;;;;;;15.33;53.32;101707.13;5013632;28;101328;-84
2021/10/19 06:39:18;;;;;;;;;;;;;;;15.62;52.38;101712.16;5016268;28;98799;-81
2021/10/19 06:41:59;;;;;;;;;;;;;;;15.72;52.21;101702.88;5027707;27;97485;-82
2021/10/19 06:44:27;;;;;;;;;;;;;;;15.69;52.31;101695.00;5027441;27;99140;-85
2021/10/19 06:46:56;;;;;;;;;;;;;;;15.71;52.30;101694.94;5032777;27;98943;-85
2021/10/19 06:52:03;;;;;;;;;;;;;;;15.85;52.04;101703.22;5033970;27;96071;-84
2021/10/19 06:54:30;;;;;;;;;;;;;;;15.72;52.22;101707.34;5034311;27;98850;-85
2021/10/19 06:57:00;;;;;;;;;;;;;;;15.60;52.34;101707.84;5033928;27;99097;-84
2021/10/19 06:59:34;;;;;;;;;;;;;;;15.48;52.65;101691.41;5034171;27;96169;-85
2021/10/19 07:02:01;;;;;;;;;;;;;;;15.89;51.77;101703.00;5038409;27;97407;-85
2021/10/19 07:04:32;;;;;;;;;;;;;;;15.77;51.90;101698.22;5033952;27;97702;-86
2021/10/19 07:06:59;;;;;;;;;;;;;;;15.89;51.58;101692.34;5031017;27;97577;-85
2021/10/19 07:09:27;;;;;;;;;;;;;;;16.00;51.52;101691.91;5037890;27;96703;-84
2021/10/19 07:11:57;;;;;;;;;;;;;;;15.92;51.44;101692.25;5031583;27;96545;-85
2021/10/19 07:14:27;;;;;;;;;;;;;;;16.27;50.64;101695.19;5028224;28;101267;-86
2021/10/19 07:16:55;;;;;;;;;;;;;;;16.25;50.71;101695.25;5025637;28;99031;-85
2021/10/19 07:19:25;;;;;;;;;;;;;;;15.85;51.56;101697.88;5025122;28;96567;-86
2021/10/19 07:24:32;;;;;;;;;;;;;;;16.11;51.19;101694.97;5021646;28;98920;-85
2021/10/19 07:26:59;;;;;;;;;;;;;;;16.22;50.72;101695.34;5022694;28;98887;-85
2021/10/19 07:29:28;;;;;;;;;;;;;;;16.29;50.68;101693.28;5019973;28;97052;-86
2021/10/19 07:31:55;;;;;;;;;;;;;;;16.43;50.41;101692.69;5021870;28;97019;-86
2021/10/19 07:34:26;;;;;;;;;;;;;;;16.15;51.14;101707.22;5023509;28;98766;-85
2021/10/19 07:36:54;;;;;;;;;;;;;;;16.47;50.36;101696.97;5020987;28;99674;-87
2021/10/19 07:39:20;;;;;;;;;;;;;;;16.42;50.34;101702.47;5018533;28;97564;-85
2021/10/19 07:41:55;;;;;;;;;;;;;;;16.27;50.60;101697.84;5019893;28;96886;-85
2021/10/19 07:44:23;;;;;;;;;;;;;;;16.13;50.85;101701.13;5020814;28;98591;-86
2021/10/19 07:46:52;;;;;;;;;;;;;;;16.42;50.14;101701.63;5017124;28;101032;-87
2021/10/19 07:49:19;;;;;;;;;;;;;;;16.48;50.10;101693.34;5020439;28;97545;-86
2021/10/19 07:51:46;;;;;;;;;;;;;;;16.55;49.86;101684.13;5021421;28;97459;-86
2021/10/19 07:54:13;;;;;;;;;;;;;;;16.52;50.14;101673.59;5016955;28;99014;-87
2021/10/19 07:59:20;;;;;;;;;;;;;;;16.62;49.85;101670.47;5017188;28;96852;-86
2021/10/19 08:01:48;;;;;;;;;;;;;;;17.08;48.68;101670.97;5021222;28;96968;-83
2021/10/19 08:04:16;;;;;;;;;;;;;;;17.27;48.31;101676.28;5017648;28;98192;-85
2021/10/19 08:06:43;;;;;;;;;;;;;;;17.08;48.50;101677.19;5023409;28;98163;-85
2021/10/19 08:09:11;;;;;;;;;;;;;;;17.27;48.29;101686.97;5019498;28;96924;-85
2021/10/19 08:11:38;;;;;;;;;;;;;;;17.03;48.79;101681.88;5016189;28;96941;-84
2021/10/19 08:14:04;;;;;;;;;;;;;;;16.80;49.05;101687.47;5012486;28;100678;-85
2021/10/19 08:16:31;;;;;;;;;;;;;;;17.34;48.15;101699.97;5014311;28;99111;-84
2021/10/19 08:18:57;;;;;;;;;;;;;;;17.19;48.13;101697.19;5015552;28;96750;-84
2021/10/19 08:21:26;;;;;;;;;;;;;;;16.74;48.82;101704.59;5018266;28;96964;-86
2021/10/19 08:29:15;;;;;;;;;;;;;;;17.56;47.29;101697.13;5014708;28;96774;-87
2021/10/19 08:31:44;;;;;;;;;;;;;;;17.51;47.42;101697.34;5016436;28;96981;-88
2021/10/19 08:36:56;;;;;;;;;;;;;;;17.05;48.85;101692.50;5025665;28;100007;-86
2021/10/19 08:42:09;;;;;;;;;;;;;;;17.02;48.48;101696.16;5027583;28;96748;-86
2021/10/19 08:44:44;;;;;;;;;;;;;;;17.33;47.96;101692.03;5024358;28;96827;-85
2021/10/19 08:47:22;;;;;;;;;;;;;;;17.70;47.23;101681.31;5021222;28;97977;-86
2021/10/19 08:49:50;;;;;;;;;;;;;;;17.72;47.04;101682.06;5021636;28;97065;-85
2021/10/19 08:52:20;;;;;;;;;;;;;;;18.04;46.18;101679.59;5016117;28;96924;-85
2021/10/19 08:54:49;;;;;;;;;;;;;;;18.24;45.73;101679.41;5017968;28;99795;-85
2021/10/19 08:57:26;;;;;;;;;;;;;;;18.57;45.20;101677.66;5016931;28;99196;-84
2021/10/19 08:59:58;;;;;;;;;;;;;;;17.57;46.49;101666.78;5017561;28;97616;-86
2021/10/19 09:02:38;;;;;;;;;;;;;;;17.67;47.00;101668.06;5026007;28;96750;-84
2021/10/19 09:05:06;;;;;;;;;;;;;;;17.78;46.69;101675.56;5019586;28;97633;-85
2021/10/19 09:07:38;;;;;;;;;;;;;;;17.98;46.14;101672.75;5022883;28;98659;-85
2021/10/19 09:10:24;;;;;;;;;;;;;;;18.40;45.34;101674.97;5024415;28;96827;-84
2021/10/19 09:12:52;;;;;;;;;;;;;;;18.12;45.92;101666.66;5029039;28;97759;-85
2021/10/19 09:15:34;;;;;;;;;;;;;;;18.28;45.52;101668.47;5020108;28;97879;-83
2021/10/19 09:18:02;;;;;;;;;;;;;;;18.43;45.68;101653.41;5025378;28;96848;-86
2021/10/19 09:20:46;;;;;;;;;;;;;;;18.17;46.26;101664.63;5022280;28;97103;-86
2021/10/19 09:23:18;;;;;;;;;;;;;;;18.44;45.76;101655.13;5029221;28;96860;-86
2021/10/19 09:25:46;;;;;;;;;;;;;;;18.83;44.69;101649.44;5022428;28;98932;-87
2021/10/19 09:28:14;;;;;;;;;;;;;;;18.78;44.94;101647.94;5022409;28;99497;-85
2021/10/19 09:30:43;;;;;;;;;;;;;;;18.50;45.39;101646.78;5022690;28;97553;-86
2021/10/19 09:33:12;;;;;;;;;;;;;;;18.78;44.96;101643.47;5028611;28;96796;-86
2021/10/19 09:35:39;;;;;;;;;;;;;;;18.89;44.50;101641.06;5032271;28;98407;-87
2021/10/19 09:38:08;;;;;;;;;;;;;;;19.10;43.96;101641.66;5035883;28;98032;-87
2021/10/19 09:40:38;;;;;;;;;;;;;;;18.96;44.46;101642.47;5030714;28;96848;-85
2021/10/19 09:43:06;;;;;;;;;;;;;;;19.38;43.53;101641.81;5028496;28;97699;-87
2021/10/19 09:45:43;;;;;;;;;;;;;;;19.06;44.56;101640.09;5033080;28;97024;-86
2021/10/19 09:50:55;;;;;;;;;;;;;;;18.87;44.99;101634.06;5027102;28;96752;-85
2021/10/19 09:53:24;;;;;;;;;;;;;;;18.76;45.13;101625.78;5024191;28;96690;-85
2021/10/19 09:56:00;;;;;;;;;;;;;;;19.21;44.05;101622.31;5023545;28;99371;-84
2021/10/19 09:58:28;;;;;;;;;;;;;;;19.10;44.21;101622.91;5029085;28;100383;-84
2021/10/19 10:00:54;;;;;;;;;;;;;;;18.83;45.37;101613.78;5023675;28;96872;-85
2021/10/19 10:03:25;;;;;;;;;;;;;;;19.10;44.76;101623.75;5023463;28;96653;-85
2021/10/19 10:08:40;;;;;;;;;;;;;;;19.87;43.11;101610.31;5014826;28;100017;-85
2021/10/19 10:11:10;;;;;;;;;;;;;;;20.02;42.65;101615.72;5028131;28;96669;-86
2021/10/19 10:13:37;;;;;;;;;;;;;;;19.94;43.14;101610.81;5034313;28;96583;-86
2021/10/19 10:16:08;;;;;;;;;;;;;;;19.33;44.16;101608.19;5025646;28;97025;-84
2021/10/19 10:21:16;;;;;;;;;;;;;;;19.15;44.73;101590.50;5028167;28;96273;-88
2021/10/19 10:23:45;;;;;;;;;;;;;;;19.55;44.02;101597.09;5020327;28;96706;-86
2021/10/19 10:26:28;;;;;;;;;;;;;;;19.87;43.56;101596.03;5026237;27;101089;-85
2021/10/19 10:28:56;;;;;;;;;;;;;;;19.93;43.53;101590.28;5025451;28;100632;-85
2021/10/19 10:31:24;;;;;;;;;;;;;;;20.03;43.38;101586.06;5026971;28;97572;-86
2021/10/19 10:34:02;;;;;;;;;;;;;;;20.14;43.31;101586.31;5033383;28;96871;-84
2021/10/19 10:39:19;;;;;;;;;;;;;;;20.04;43.74;101590.50;5029359;28;98800;-86
2021/10/19 10:41:49;;;;;;;;;;;;;;;20.20;43.50;101590.41;5024199;28;97306;-86
2021/10/19 10:44:22;;;;;;;;;;;;;;;20.50;43.21;101582.28;5023492;28;98473;-86
2021/10/19 10:46:57;;;;;;;;;;;;;;;20.39;42.76;101584.78;5025506;28;99278;-86
2021/10/19 10:49:24;;;;;;;;;;;;;;;20.18;43.49;101577.09;5021013;28;98854;-86
2021/10/19 10:51:52;;;;;;;;;;;;;;;20.05;43.93;101577.94;5012752;28;96849;-86
2021/10/19 10:54:20;;;;;;;;;;;;;;;20.35;42.97;101562.63;5023415;28;96864;-87
2021/10/19 11:05:23;;;;;;;;;;;;;;;20.01;43.96;101558.50;5022531;28;96846;-86
2021/10/19 11:07:50;;;;;;;;;;;;;;;20.57;43.29;101567.50;5014044;28;101062;-86
2021/10/19 11:10:21;;;;;;;;;;;;;;;20.69;42.92;101555.97;5025134;28;101364;-86
2021/10/19 11:12:48;;;;;;;;;;;;;;;20.42;43.22;101553.22;5023994;28;96866;-88
2021/10/19 11:15:31;;;;;;;;;;;;;;;20.43;42.86;101551.41;5029627;28;96645;-86
2021/10/19 11:18:02;;;;;;;;;;;;;;;20.38;43.01;101551.72;5021876;28;98176;-86
2021/10/19 11:20:40;;;;;;;;;;;;;;;20.55;42.61;101542.56;5016443;28;98130;-86
2021/10/19 11:25:50;;;;;;;;;;;;;;;21.21;41.35;101552.56;5022735;28;97578;-87
2021/10/19 11:28:19;;;;;;;;;;;;;;;21.17;41.36;101551.03;5018304;28;97439;-88
2021/10/19 11:30:52;;;;;;;;;;;;;;;21.07;41.39;101540.88;5020374;28;97602;-84
2021/10/19 11:33:20;;;;;;;;;;;;;;;21.42;41.16;101537.66;5058689;22;97090;-86
2021/10/19 11:35:49;;;;;;;;;;;;;;;21.09;41.33;101532.72;5059093;27;96779;-86
2021/10/19 11:38:27;;;;;;;;;;;;;;;21.16;41.56;101530.50;5067437;27;98086;-87
2021/10/19 11:41:13;;;;;;;;;;;;;;;20.97;42.36;101531.72;5064193;27;97760;-87
2021/10/19 11:43:40;;;;;;;;;;;;;;;21.38;41.17;101526.28;5062223;27;96703;-86
2021/10/19 11:46:14;;;;;;;;;;;;;;;21.75;40.58;101511.13;5064382;27;97697;-87
2021/10/19 11:48:41;;;;;;;;;;;;;;;21.67;40.64;101504.56;5061707;27;98119;-85
2021/10/19 11:56:33;;;;;;;;;;;;;;;21.62;41.03;101485.19;5059976;27;96756;-85
2021/10/19 11:59:02;;;;;;;;;;;;;;;21.78;40.54;101478.66;5055169;27;101045;-85
2021/10/19 12:01:41;;;;;;;;;;;;;;;21.48;41.09;101473.56;5058998;27;98555;-85
2021/10/19 12:04:32;;;;;;;;;;;;;;;21.42;41.45;101475.81;5062227;27;96755;-84
2021/10/19 12:07:08;;;;;;;;;;;;;;;21.57;41.36;101464.00;5065133;27;96770;-86
2021/10/19 12:12:16;;;;;;;;;;;;;;;21.82;40.63;101464.00;5067867;27;99102;-86
2021/10/19 12:14:51;;;;;;;;;;;;;;;21.99;40.47;101464.69;5079702;27;96746;-86
2021/10/19 12:17:23;;;;;;;;;;;;;;;22.22;40.31;101469.25;5081396;27;96116;-86
2021/10/19 12:20:12;;;;;;;;;;;;;;;21.96;40.70;101468.44;5082296;27;98939;-85
2021/10/19 12:22:41;;;;;;;;;;;;;;;22.25;40.19;101466.34;5074629;27;99319;-85
2021/10/19 12:25:09;;;;;;;;;;;;;;;21.79;40.85;101456.13;5083191;27;96816;-83
2021/10/19 12:27:39;;;;;;;;;;;;;;;22.06;40.63;101455.16;5079307;27;96187;-83
2021/10/19 12:32:57;;;;;;;;;;;;;;;21.91;40.80;101443.66;5072997;27;97990;-82
2021/10/19 12:35:29;;;;;;;;;;;;;;;21.82;41.36;101442.47;5082312;27;97414;-83
2021/10/19 12:37:57;;;;;;;;;;;;;;;21.96;40.96;101440.66;5080537;27;96032;-85
2021/10/19 12:40:25;;;;;;;;;;;;;;;21.64;41.68;101432.16;5075248;27;99835;-84
2021/10/19 12:45:53;;;;;;;;;;;;;;;21.73;41.55;101424.28;4995482;28;96685;-84
2021/10/19 12:48:21;;;;;;;;;;;;;;;21.41;42.33;101420.34;5064606;27;96662;-87
2021/10/19 12:51:16;;;;;;;;;;;;;;;21.24;42.23;101421.53;5078086;27;99584;-86
2021/10/19 12:53:47;;;;;;;;;;;;;;;21.21;42.70;101408.28;5062475;27;96742;-86
2021/10/19 12:56:15;;;;;;;;;;;;;;;21.34;42.35;101403.78;5069928;27;96623;-86
2021/10/19 12:58:53;;;;;;;;;;;;;;;21.51;42.17;101399.91;5059634;27;96785;-87
2021/10/19 13:01:26;;;;;;;;;;;;;;;21.67;42.12;101397.84;5066803;27;98001;-86
2021/10/19 13:03:56;;;;;;;;;;;;;;;21.59;42.21;101402.94;5071750;27;101318;-86
2021/10/19 13:06:24;;;;;;;;;;;;;;;21.52;42.00;101396.25;5071422;27;96738;-85
2021/10/19 13:08:52;;;;;;;;;;;;;;;21.26;42.59;101394.53;5072127;27;96860;-87
2021/10/19 13:11:20;;;;;;;;;;;;;;;21.20;42.99;101401.19;5063489;27;99235;-84
2021/10/19 13:16:38;;;;;;;;;;;;;;;20.82;43.94;101398.41;5076167;27;96712;-84
2021/10/19 13:19:08;;;;;;;;;;;;;;;21.27;43.40;101393.56;5068970;27;96602;-86
2021/10/19 13:21:36;;;;;;;;;;;;;;;21.53;42.91;101389.88;5073320;27;99620;-85
2021/10/19 13:24:04;;;;;;;;;;;;;;;21.44;43.12;101386.03;5075768;27;98735;-86
2021/10/19 13:29:25;;;;;;;;;;;;;;;21.14;43.90;101381.91;5062783;27;96655;-85
2021/10/19 13:31:57;;;;;;;;;;;;;;;20.97;44.44;101383.94;5070413;27;99014;-86
2021/10/19 13:34:42;;;;;;;;;;;;;;;20.44;46.16;101382.19;5066417;27;99116;-85
2021/10/19 13:37:10;;;;;;;;;;;;;;;20.71;45.42;101371.44;5065667;27;97631;-85
2021/10/19 13:45:11;;;;;;;;;;;;;;;20.82;45.36;101360.81;5057219;27;96800;-86
2021/10/19 13:47:38;;;;;;;;;;;;;;;20.92;45.05;101364.59;5072002;27;98324;-86
2021/10/19 13:50:06;;;;;;;;;;;;;;;21.36;44.02;101364.22;5067761;27;96858;-87
2021/10/19 13:55:34;;;;;;;;;;;;;;;21.70;43.38;101357.28;5053329;28;97055;-85
2021/10/19 13:58:01;;;;;;;;;;;;;;;21.40;43.87;101359.47;5065983;27;97912;-87